createdAt,value
2019-05-23T00:01:22.368Z,14.37
2019-05-23T00:04:31.048Z,14.30
2019-05-23T00:07:31.237Z,13.77
2019-05-23T00:10:37.139Z,12.43
2019-05-23T00:13:15.862Z,12.07
2019-05-23T00:15:51.034Z,12.20
2019-05-23T00:18:24.607Z,12.83
2019-05-23T00:20:59.041Z,11.37
2019-05-23T00:23:32.421Z,11.37
2019-05-23T00:26:05.199Z,11.83
2019-05-23T00:28:39.250Z,11.90
2019-05-23T00:31:21.469Z,12.23
2019-05-23T00:33:53.504Z,12.23
2019-05-23T00:36:26.329Z,11.20
2019-05-23T00:38:58.614Z,10.40
2019-05-23T00:41:32.587Z,9.67
2019-05-23T00:44:05.615Z,8.37
2019-05-23T00:46:38.223Z,7.13
2019-05-23T00:49:09.968Z,10.33
2019-05-23T00:51:43.878Z,10.57
2019-05-23T00:54:17.243Z,11.20
2019-05-23T00:56:50.138Z,10.60
2019-05-23T00:59:27.185Z,10.07
2019-05-23T01:01:57.715Z,11.10
2019-05-23T01:04:32.375Z,9.37
2019-05-23T01:07:07.077Z,11.40
2019-05-23T01:09:39.599Z,9.87
2019-05-23T01:12:12.902Z,9.57
2019-05-23T01:14:44.788Z,7.97
2019-05-23T01:17:18.976Z,6.83
2019-05-23T01:19:52.249Z,11.10
2019-05-23T01:22:24.091Z,11.17
2019-05-23T01:24:56.518Z,11.70
2019-05-23T01:27:28.481Z,11.27
2019-05-23T01:30:00.506Z,11.57
2019-05-23T01:32:44.134Z,12.67
2019-05-23T01:35:18.156Z,10.60
2019-05-23T01:37:51.478Z,12.80
2019-05-23T01:40:24.948Z,13.20
2019-05-23T01:42:58.825Z,11.70
2019-05-23T01:45:30.891Z,11.87
2019-05-23T01:48:02.329Z,11.53
2019-05-23T01:50:34.470Z,11.73
2019-05-23T01:53:07.530Z,9.50
2019-05-23T01:55:39.844Z,6.60
2019-05-23T01:58:12.135Z,11.83
2019-05-23T02:00:45.575Z,12.90
2019-05-23T02:03:16.995Z,20.40
2019-05-23T02:05:48.417Z,17.00
2019-05-23T02:08:20.040Z,19.70
2019-05-23T02:10:52.571Z,13.27
2019-05-23T02:13:24.060Z,18.37
2019-05-23T02:15:57.535Z,11.47
2019-05-23T02:18:29.631Z,12.50
2019-05-23T02:21:01.222Z,16.47
2019-05-23T02:23:34.609Z,15.83
2019-05-23T02:26:07.712Z,17.67
2019-05-23T02:28:40.130Z,11.20
2019-05-23T02:31:12.648Z,17.60
2019-05-23T02:33:45.469Z,17.70
2019-05-23T02:36:17.943Z,19.10
2019-05-23T02:38:53.354Z,17.87
2019-05-23T02:41:33.266Z,20.53
2019-05-23T02:44:06.491Z,23.67
2019-05-23T02:46:42.453Z,19.90
2019-05-23T02:49:16.374Z,14.53
2019-05-23T02:51:48.994Z,10.40
2019-05-23T03:13:12.850Z,11.40
2019-05-23T03:16:00.797Z,9.00
2019-05-23T03:18:43.622Z,13.47
2019-05-23T03:21:22.559Z,10.10
2019-05-23T03:23:59.172Z,13.73
2019-05-23T03:26:37.522Z,13.33
2019-05-23T03:29:11.324Z,18.40
2019-05-23T03:31:48.322Z,18.40
2019-05-23T03:34:21.909Z,12.83
2019-05-23T03:36:54.044Z,17.43
2019-05-23T03:39:26.570Z,15.63
2019-05-23T03:41:58.255Z,15.47
2019-05-23T03:48:03.980Z,16.70
2019-05-23T03:50:36.868Z,20.17
2019-05-23T03:53:11.121Z,18.33
2019-05-23T03:55:43.123Z,19.93
2019-05-23T03:58:15.124Z,20.10
2019-05-23T04:00:58.417Z,20.63
2019-05-23T04:03:30.595Z,19.73
2019-05-23T04:06:03.720Z,20.40
2019-05-23T04:08:34.907Z,19.10
2019-05-23T04:11:08.482Z,18.03
2019-05-23T04:13:41.350Z,17.33
2019-05-23T04:16:13.201Z,16.23
2019-05-23T04:18:45.168Z,14.93
2019-05-23T04:21:18.456Z,16.60
2019-05-23T04:23:49.754Z,17.47
2019-05-23T04:26:23.054Z,15.93
2019-05-23T04:28:55.624Z,15.07
2019-05-23T04:31:30.728Z,17.13
2019-05-23T04:34:02.843Z,14.60
2019-05-23T04:36:36.074Z,16.00
2019-05-23T04:39:11.421Z,14.67
2019-05-23T04:41:44.986Z,14.43
2019-05-23T04:44:18.358Z,14.33
2019-05-23T04:46:50.483Z,13.67
2019-05-23T04:49:23.310Z,13.50
2019-05-23T04:51:55.397Z,13.17
2019-05-23T04:54:27.715Z,12.97
2019-05-23T04:57:01.657Z,12.50
2019-05-23T04:59:33.005Z,11.77
2019-05-23T05:02:05.625Z,12.63
2019-05-23T05:04:37.636Z,11.67
2019-05-23T05:07:09.609Z,11.03
2019-05-23T05:09:41.591Z,10.10
2019-05-23T05:12:13.345Z,8.93
2019-05-23T05:14:45.424Z,9.23
2019-05-23T05:17:18.570Z,9.40
2019-05-23T05:19:50.334Z,8.37
2019-05-23T05:22:22.793Z,8.50
2019-05-23T05:24:54.293Z,8.50
2019-05-23T05:27:26.755Z,8.37
2019-05-23T05:29:58.953Z,8.03
2019-05-23T05:32:44.005Z,9.53
2019-05-23T05:35:06.057Z,9.43
2019-05-23T05:37:37.753Z,9.47
2019-05-23T05:40:10.893Z,10.77
2019-05-23T05:42:44.138Z,10.60
2019-05-23T05:45:16.590Z,9.90
2019-05-23T05:47:49.184Z,9.83
2019-05-23T05:50:23.657Z,10.03
2019-05-23T05:52:55.633Z,11.83
2019-05-23T05:55:29.377Z,9.53
2019-05-23T05:58:00.744Z,10.93
2019-05-23T06:00:48.163Z,9.87
2019-05-23T06:03:23.919Z,9.50
2019-05-23T06:05:55.579Z,9.53
2019-05-23T06:08:38.907Z,9.70
2019-05-23T06:11:13.232Z,9.50
2019-05-23T06:13:45.265Z,9.20
2019-05-23T06:16:16.815Z,9.20
2019-05-23T06:18:49.686Z,9.57
2019-05-23T06:21:26.190Z,10.03
2019-05-23T06:23:58.306Z,9.23
2019-05-23T06:26:30.417Z,8.90
2019-05-23T06:29:02.326Z,8.73
2019-05-23T06:31:36.635Z,7.90
2019-05-23T06:34:09.067Z,8.63
2019-05-23T06:36:41.225Z,8.80
2019-05-23T06:39:13.831Z,8.03
2019-05-23T06:41:46.787Z,7.47
2019-05-23T06:44:20.396Z,7.20
2019-05-23T06:46:54.416Z,6.87
2019-05-23T06:49:27.366Z,6.28
2019-05-23T06:52:00.367Z,5.60
2019-05-23T06:54:35.602Z,5.47
2019-05-23T06:57:08.101Z,7.08
2019-05-23T06:59:40.903Z,5.58
2019-05-23T07:02:14.060Z,6.60
2019-05-23T07:04:47.258Z,6.13
2019-05-23T07:07:21.745Z,5.70
2019-05-23T07:09:53.506Z,6.35
2019-05-23T07:12:28.908Z,6.30
2019-05-23T07:15:01.273Z,6.40
2019-05-23T07:17:33.614Z,5.05
2019-05-23T07:20:10.343Z,5.50
2019-05-23T07:22:42.545Z,5.33
2019-05-23T07:25:14.869Z,6.00
2019-05-23T07:27:46.372Z,5.50
2019-05-23T07:30:27.195Z,6.07
2019-05-23T07:32:59.336Z,5.83
2019-05-23T07:35:31.719Z,5.20
2019-05-23T07:38:03.620Z,5.33
2019-05-23T07:40:37.541Z,5.05
2019-05-23T07:43:10.122Z,4.87
2019-05-23T07:45:54.973Z,4.60
2019-05-23T07:48:28.257Z,4.70
2019-05-23T07:51:01.010Z,4.15
2019-05-23T07:53:38.429Z,4.95
2019-05-23T07:56:16.276Z,5.22
2019-05-23T07:58:48.462Z,4.65
2019-05-23T08:01:24.673Z,4.90
2019-05-23T08:03:57.232Z,4.78
2019-05-23T08:06:28.986Z,4.40
2019-05-23T08:09:01.381Z,4.40
2019-05-23T08:11:34.142Z,4.40
2019-05-23T08:14:12.055Z,4.97
2019-05-23T08:16:43.632Z,4.40
2019-05-23T08:19:19.375Z,4.40
2019-05-23T08:21:48.918Z,4.75
2019-05-23T08:24:22.242Z,4.47
2019-05-23T08:26:55.880Z,4.62
2019-05-23T08:29:28.379Z,5.00
2019-05-23T08:32:01.550Z,4.70
2019-05-23T08:34:41.673Z,5.03
2019-05-23T08:37:08.808Z,4.97
2019-05-23T08:39:41.047Z,4.30
2019-05-23T08:42:13.004Z,4.25
2019-05-23T08:44:44.908Z,5.20
2019-05-23T08:47:17.715Z,4.58
2019-05-23T08:49:48.934Z,4.97
2019-05-23T08:52:20.483Z,4.50
2019-05-23T08:54:56.672Z,4.37
2019-05-23T08:57:30.869Z,4.20
2019-05-23T09:00:10.676Z,4.55
2019-05-23T09:02:44.364Z,4.30
2019-05-23T09:05:17.334Z,4.83
2019-05-23T09:07:49.417Z,4.70
2019-05-23T09:10:22.451Z,4.30
2019-05-23T09:12:56.754Z,4.28
2019-05-23T09:15:31.635Z,4.78
2019-05-23T09:18:08.705Z,4.80
2019-05-23T09:20:41.627Z,4.40
2019-05-23T09:23:14.832Z,4.05
2019-05-23T09:25:47.097Z,4.70
2019-05-23T09:28:19.032Z,4.70
2019-05-23T09:30:50.920Z,4.62
2019-05-23T09:33:22.399Z,4.10
2019-05-23T09:35:54.606Z,3.92
2019-05-23T09:38:27.283Z,3.40
2019-05-23T09:40:59.467Z,4.17
2019-05-23T09:43:31.818Z,4.37
2019-05-23T09:46:04.015Z,3.55
2019-05-23T09:48:36.212Z,4.10
2019-05-23T09:51:11.202Z,9.55
2019-05-23T09:53:47.371Z,4.10
2019-05-23T09:56:20.091Z,3.30
2019-05-23T09:58:52.798Z,3.60
2019-05-23T10:01:25.399Z,3.80
2019-05-23T10:03:59.296Z,3.83
2019-05-23T10:06:32.532Z,4.60
2019-05-23T10:09:08.176Z,3.80
2019-05-23T10:11:42.492Z,3.80
2019-05-23T10:14:19.180Z,3.95
2019-05-23T10:16:52.057Z,3.95
2019-05-23T10:19:24.132Z,4.47
2019-05-23T10:21:56.540Z,4.42
2019-05-23T10:24:28.593Z,4.47
2019-05-23T10:27:00.299Z,4.40
2019-05-23T10:29:32.390Z,4.53
2019-05-23T10:32:05.989Z,5.10
2019-05-23T10:34:39.904Z,4.80
2019-05-23T10:37:13.104Z,5.20
2019-05-23T10:39:48.984Z,4.70
2019-05-23T10:42:20.714Z,4.67
2019-05-23T10:44:52.355Z,4.63
2019-05-23T10:47:24.527Z,5.03
2019-05-23T10:49:56.710Z,4.80
2019-05-23T10:52:30.939Z,4.17
2019-05-23T10:55:02.477Z,4.10
2019-05-23T10:57:34.410Z,4.35
2019-05-23T11:00:15.731Z,4.00
2019-05-23T11:02:47.414Z,3.93
2019-05-23T11:05:19.013Z,3.67
2019-05-23T11:07:50.614Z,4.07
2019-05-23T11:10:23.054Z,3.90
2019-05-23T11:12:54.690Z,3.87
2019-05-23T11:15:28.281Z,3.80
2019-05-23T11:17:59.687Z,3.22
2019-05-23T11:20:31.870Z,3.70
2019-05-23T11:23:05.877Z,3.72
2019-05-23T11:25:39.835Z,3.90
2019-05-23T11:28:16.220Z,3.55
2019-05-23T11:30:50.826Z,3.80
2019-05-23T11:33:23.042Z,3.70
2019-05-23T11:35:55.264Z,3.80
2019-05-23T11:38:38.508Z,3.80
2019-05-23T11:41:19.860Z,4.03
2019-05-23T11:43:59.564Z,3.67
2019-05-23T11:46:35.275Z,3.30
2019-05-23T11:49:07.765Z,3.75
2019-05-23T11:51:39.928Z,4.60
2019-05-23T11:54:14.348Z,3.65
2019-05-23T11:56:46.583Z,4.27
2019-05-23T11:59:18.031Z,3.12
2019-05-23T12:01:51.784Z,3.42
2019-05-23T12:04:25.221Z,3.70
2019-05-23T12:06:59.704Z,3.83
2019-05-23T12:09:31.157Z,3.53
2019-05-23T12:12:05.232Z,3.97
2019-05-23T12:14:38.490Z,3.83
2019-05-23T12:17:13.258Z,4.55
2019-05-23T12:19:59.888Z,4.50
2019-05-23T12:25:22.733Z,5.90
2019-05-23T12:33:34.325Z,4.10
2019-05-23T12:39:37.744Z,4.80
2019-05-23T12:42:43.721Z,4.97
2019-05-23T12:45:16.965Z,3.57
2019-05-23T12:47:50.162Z,3.60
2019-05-23T12:50:30.203Z,4.50
2019-05-23T12:53:01.792Z,4.60
2019-05-23T12:55:33.870Z,4.97
2019-05-23T12:58:13.803Z,4.30
2019-05-23T13:00:50.506Z,5.40
2019-05-23T13:03:23.330Z,5.43
2019-05-23T13:05:54.793Z,4.83
2019-05-23T13:08:28.014Z,4.70
2019-05-23T13:11:00.913Z,5.07
2019-05-23T13:13:32.259Z,5.47
2019-05-23T13:16:03.742Z,5.67
2019-05-23T13:18:35.020Z,4.73
2019-05-23T13:21:06.578Z,4.80
2019-05-23T13:23:39.299Z,5.13
2019-05-23T13:26:12.327Z,4.50
2019-05-23T13:28:43.842Z,5.07
2019-05-23T13:31:17.518Z,5.00
2019-05-23T13:33:48.779Z,4.77
2019-05-23T13:36:22.009Z,5.13
2019-05-23T13:38:53.663Z,5.17
2019-05-23T13:41:25.728Z,4.20
2019-05-23T13:43:57.898Z,4.27
2019-05-23T13:46:29.265Z,4.30
2019-05-23T13:49:02.185Z,4.77
2019-05-23T13:51:33.682Z,4.67
2019-05-23T13:54:05.392Z,5.40
2019-05-23T13:56:37.902Z,5.10
2019-05-23T13:59:09.154Z,5.80
2019-05-23T14:01:40.830Z,4.60
2019-05-23T14:04:12.619Z,3.37
2019-05-23T14:10:17.056Z,6.20
2019-05-23T14:12:49.029Z,5.67
2019-05-23T14:15:21.895Z,5.50
2019-05-23T14:17:53.669Z,4.90
2019-05-23T14:20:25.789Z,4.90
2019-05-23T14:23:02.838Z,3.87
2019-05-23T14:25:34.240Z,5.37
2019-05-23T14:28:12.465Z,6.07
2019-05-23T14:30:45.483Z,3.40
2019-05-23T14:36:24.231Z,3.93
2019-05-23T14:38:57.282Z,4.63
2019-05-23T14:41:44.272Z,5.73
2019-05-23T14:44:04.325Z,5.50
2019-05-23T14:46:39.863Z,4.77
2019-05-23T14:49:13.003Z,5.50
2019-05-23T14:51:45.987Z,5.30
2019-05-23T14:54:33.542Z,5.97
2019-05-23T14:57:07.067Z,3.27
2019-05-23T14:59:39.054Z,3.97
2019-05-23T15:02:12.004Z,4.07
2019-05-23T15:04:43.281Z,3.00
2019-05-23T15:07:14.796Z,4.13
2019-05-23T15:09:48.113Z,3.57
2019-05-23T15:12:19.877Z,3.40
2019-05-23T15:14:51.285Z,2.87
2019-05-23T15:17:22.664Z,3.13
2019-05-23T15:19:53.952Z,3.10
2019-05-23T15:22:25.495Z,3.73
2019-05-23T15:24:56.704Z,4.20
2019-05-23T15:27:28.093Z,4.00
2019-05-23T15:29:59.348Z,3.83
2019-05-23T15:32:30.614Z,4.40
2019-05-23T15:35:02.054Z,5.17
2019-05-23T15:37:34.151Z,4.90
2019-05-23T15:40:40.347Z,4.60
2019-05-23T15:43:19.104Z,4.07
2019-05-23T15:45:51.010Z,3.97
2019-05-23T15:48:23.130Z,4.47
2019-05-23T15:50:54.683Z,3.40
2019-05-23T15:53:28.360Z,3.73
2019-05-23T15:56:26.835Z,4.33
2019-05-23T15:59:00.541Z,4.10
2019-05-23T16:01:33.776Z,3.57
2019-05-23T16:04:16.245Z,4.00
2019-05-23T16:06:47.875Z,3.83
2019-05-23T16:09:29.264Z,4.27
2019-05-23T16:11:55.029Z,4.17
2019-05-23T16:14:26.993Z,4.27
2019-05-23T16:16:58.844Z,4.03
2019-05-23T16:19:30.494Z,4.30
2019-05-23T16:22:01.929Z,4.10
2019-05-23T16:24:34.056Z,4.20
2019-05-23T16:27:06.672Z,3.80
2019-05-23T16:29:38.620Z,3.80
2019-05-23T16:32:10.055Z,3.70
2019-05-23T16:34:41.493Z,3.53
2019-05-23T16:37:12.934Z,3.50
2019-05-23T16:39:48.280Z,3.47
2019-05-23T16:42:18.651Z,3.63
2019-05-23T16:45:38.616Z,3.70
2019-05-23T16:48:18.162Z,4.17
2019-05-23T16:50:49.676Z,3.70
2019-05-23T16:53:22.048Z,3.50
2019-05-23T16:56:08.773Z,3.93
2019-05-23T16:59:02.974Z,3.63
2019-05-23T17:01:36.919Z,4.33
2019-05-23T17:04:10.627Z,4.20
2019-05-23T17:06:48.243Z,4.00
2019-05-23T17:09:19.367Z,4.20
2019-05-23T17:12:08.794Z,3.80
2019-05-23T17:14:44.920Z,3.57
2019-05-23T17:17:57.117Z,3.87
2019-05-23T17:22:03.023Z,3.67
2019-05-23T17:23:12.565Z,3.40
2019-05-23T17:25:59.199Z,4.20
2019-05-23T17:28:50.650Z,4.47
2019-05-23T17:31:28.977Z,5.17
2019-05-23T17:36:53.008Z,5.23
2019-05-23T17:39:31.977Z,5.93
2019-05-23T17:47:56.309Z,6.73
2019-05-23T17:50:34.365Z,6.27
2019-05-23T17:53:04.958Z,6.13
2019-05-23T17:55:38.172Z,5.27
2019-05-23T17:58:10.491Z,4.93
2019-05-23T18:00:43.849Z,4.90
2019-05-23T18:03:18.235Z,4.37
2019-05-23T18:05:51.207Z,6.07
2019-05-23T18:08:23.766Z,3.63
2019-05-23T18:10:57.265Z,6.73
2019-05-23T18:13:29.639Z,6.00
2019-05-23T18:16:03.019Z,7.50
2019-05-23T18:18:34.909Z,5.57
2019-05-23T18:21:08.846Z,5.60
2019-05-23T18:23:41.568Z,3.07
2019-05-23T18:26:19.468Z,5.90
2019-05-23T18:28:51.927Z,3.00
2019-05-23T18:31:29.117Z,4.33
2019-05-23T18:34:02.504Z,4.90
2019-05-23T18:36:37.314Z,2.67
2019-05-23T18:39:12.668Z,5.57
2019-05-23T18:41:45.902Z,4.90
2019-05-23T18:44:20.439Z,5.30
2019-05-23T18:46:54.411Z,3.40
2019-05-23T18:49:30.537Z,2.30
2019-05-23T18:52:03.526Z,6.37
2019-05-23T18:54:39.392Z,5.00
2019-05-23T18:57:12.809Z,5.97
2019-05-23T18:59:44.613Z,4.23
2019-05-23T19:02:17.106Z,4.83
2019-05-23T19:04:49.275Z,2.93
2019-05-23T19:07:21.495Z,5.27
2019-05-23T19:09:55.103Z,6.83
2019-05-23T19:12:28.852Z,6.03
2019-05-23T19:15:03.784Z,6.60
2019-05-23T19:17:37.376Z,4.83
2019-05-23T19:20:12.347Z,4.40
2019-05-23T19:22:48.774Z,6.37
2019-05-23T19:25:23.484Z,7.60
2019-05-23T19:27:56.710Z,5.57
2019-05-23T19:30:29.521Z,5.93
2019-05-23T19:33:02.841Z,5.83
2019-05-23T19:35:37.443Z,7.17
2019-05-23T19:38:11.424Z,3.03
2019-05-23T19:40:46.294Z,4.97
2019-05-23T19:43:21.036Z,5.17
2019-05-23T19:45:55.337Z,6.73
2019-05-23T19:48:28.775Z,8.00
2019-05-23T19:51:02.566Z,7.97
2019-05-23T19:53:37.156Z,8.33
2019-05-23T19:56:10.853Z,7.13
2019-05-23T19:58:44.170Z,6.00
2019-05-23T20:01:16.598Z,5.47
2019-05-23T20:03:49.772Z,6.57
2019-05-23T20:06:22.039Z,3.67
2019-05-23T20:08:56.241Z,7.30
2019-05-23T20:11:30.206Z,6.17
2019-05-23T20:14:03.501Z,6.10
2019-05-23T20:16:36.689Z,6.27
2019-05-23T20:19:09.452Z,5.47
2019-05-23T20:21:43.146Z,6.40
2019-05-23T20:24:14.750Z,4.57
2019-05-23T20:26:47.052Z,7.20
2019-05-23T20:29:18.478Z,6.83
2019-05-23T20:31:56.607Z,6.87
2019-05-23T20:34:48.116Z,6.60
2019-05-23T20:37:52.729Z,6.83
2019-05-23T20:40:53.037Z,6.57
2019-05-23T20:43:28.771Z,7.40
2019-05-23T20:46:00.285Z,7.40
2019-05-23T20:48:36.600Z,7.40
2019-05-23T20:51:27.833Z,7.70
2019-05-23T20:54:05.153Z,5.60
2019-05-23T20:56:45.497Z,4.03
2019-05-23T20:59:23.467Z,5.10
2019-05-23T21:02:22.639Z,4.63
2019-05-23T21:05:12.626Z,5.57
2019-05-23T21:08:10.985Z,5.33
2019-05-23T21:10:56.835Z,7.63
2019-05-23T21:13:42.123Z,7.23
2019-05-23T21:16:26.560Z,7.87
2019-05-23T21:19:03.082Z,8.57
2019-05-23T21:21:39.796Z,9.50
2019-05-23T21:24:40.216Z,4.20
2019-05-23T21:27:23.090Z,5.07
2019-05-23T21:30:11.312Z,4.23
2019-05-23T21:32:52.354Z,6.63
2019-05-23T21:35:34.033Z,7.47
2019-05-23T21:38:25.450Z,4.60
2019-05-23T21:41:04.180Z,6.47
2019-05-23T21:43:36.631Z,5.63
2019-05-23T21:46:09.282Z,7.77
2019-05-23T21:48:41.525Z,6.90
2019-05-23T21:51:17.303Z,8.53
2019-05-23T21:53:48.995Z,8.27
2019-05-23T21:56:28.844Z,6.83
2019-05-23T21:59:01.123Z,7.93
2019-05-23T22:01:44.317Z,9.53
2019-05-23T22:04:28.047Z,10.27
2019-05-23T22:07:04.048Z,10.80
2019-05-23T22:09:36.485Z,10.57
2019-05-23T22:12:10.209Z,12.60
2019-05-23T22:14:43.621Z,13.80
2019-05-23T22:17:18.521Z,11.83
2019-05-23T22:19:51.300Z,11.63
2019-05-23T22:22:24.803Z,11.93
2019-05-23T22:24:59.437Z,12.47
2019-05-23T22:27:50.061Z,10.50
2019-05-23T22:30:36.222Z,10.10
2019-05-23T22:33:10.621Z,10.53
2019-05-23T22:35:43.017Z,12.57
2019-05-23T22:38:15.152Z,11.33
2019-05-23T22:40:54.412Z,12.50
2019-05-23T22:43:31.728Z,11.30
2019-05-23T22:46:02.232Z,11.60
2019-05-23T22:48:37.470Z,10.87
2019-05-23T22:51:21.526Z,10.33
2019-05-23T22:53:59.848Z,9.97
2019-05-23T22:56:44.997Z,10.03
2019-05-23T22:59:26.517Z,10.43
2019-05-23T23:02:00.258Z,11.03
2019-05-23T23:04:32.711Z,10.17
2019-05-23T23:07:04.737Z,9.20
2019-05-23T23:09:36.862Z,9.10
2019-05-23T23:12:10.703Z,10.00
2019-05-23T23:14:43.050Z,9.73
2019-05-23T23:17:15.477Z,7.07
2019-05-23T23:19:47.610Z,10.70
2019-05-23T23:22:21.332Z,9.90
2019-05-23T23:24:57.611Z,11.23
2019-05-23T23:27:34.378Z,10.20
2019-05-23T23:30:13.612Z,10.47
2019-05-23T23:32:49.257Z,11.83
2019-05-23T23:35:21.126Z,14.63
2019-05-23T23:37:53.022Z,15.80
2019-05-23T23:40:26.243Z,15.40
2019-05-23T23:43:00.076Z,18.13
2019-05-23T23:45:50.836Z,19.60
2019-05-23T23:48:40.792Z,19.83
2019-05-23T23:51:30.031Z,20.23
2019-05-23T23:54:19.098Z,19.90
2019-05-23T23:57:09.514Z,19.43
2019-05-23T23:59:40.379Z,23.43
